Isle Saint George, Ohio
Current Conditions -  °F | °C
As of 9:53 AM on Thursday 23 Oct 2014 (Local Time) from KPCW Reporting Station
NA  
Wind Chill: 46°   Ceiling: NA
Heat Index: 49°   Visibility: NA
Dew Point: 44°   Wind: 7mph
Humidity: 83%   Direction: 10°N
Pressure: 30.24"   Gusts: NA
Location:  41.72°N, 82.82°W
Report Text: KPCW 231353Z AUTO 01006KT 09/07 A3024 RMK AO2 T00940066 $
Loading
Personal Weather Stations






























Interactive Weather Map
Tropical Storm Tracking
New forecast layout! Learn more

10-Day Weather Forecast

Advertisements
Track Severe Weather on mobile